Time;durP1;ratioP1;P1;durP2;ratioP2;P2;SDS_P1;SDS_P2;PMS_P1;PMS_P2;Temp;Humidity;BMP_temperature;BMP_pressure;BME280_temperature;BME280_humidity;BME280_pressure;Samples;Min_cycle;Max_cycle;Signal;HPM_P1;HPM_P2
2023/12/02 00:01:12;;;;;;;22.90;13.53;;;;;;;10.26;66.83;98500.00;5096088;28;20179;-87
2023/12/02 00:03:37;;;;;;;29.83;15.93;;;;;;;10.22;66.78;98501.09;5074052;28;20311;-87
2023/12/02 00:06:03;;;;;;;30.40;14.17;;;;;;;10.25;66.72;98497.47;5075662;28;20223;-87
2023/12/02 00:08:29;;;;;;;26.13;13.17;;;;;;;10.25;66.48;98489.59;5057988;28;20179;-87
2023/12/02 00:10:54;;;;;;;29.23;14.30;;;;;;;10.25;65.88;98477.34;5065789;28;20183;-87
2023/12/02 00:13:20;;;;;;;23.80;12.77;;;;;;;10.20;66.20;98495.13;5095745;28;20225;-87
2023/12/02 00:15:45;;;;;;;28.73;13.43;;;;;;;10.11;66.18;98498.28;5077939;28;20184;-86
2023/12/02 00:18:11;;;;;;;32.17;13.30;;;;;;;10.17;66.27;98503.16;5077619;28;20177;-87
2023/12/02 00:20:36;;;;;;;23.23;12.63;;;;;;;10.07;66.60;98504.63;5088161;28;20180;-87
2023/12/02 00:23:02;;;;;;;29.43;14.23;;;;;;;9.97;66.73;98494.81;5077726;28;20606;-87
2023/12/02 00:25:27;;;;;;;27.67;13.07;;;;;;;9.83;67.55;98487.78;5095616;28;20249;-87
2023/12/02 00:27:53;;;;;;;29.07;13.07;;;;;;;9.88;68.03;98490.97;5077736;28;20169;-86
2023/12/02 00:30:19;;;;;;;28.43;14.30;;;;;;;9.85;68.06;98491.16;5077365;28;20180;-86
2023/12/02 00:32:44;;;;;;;31.13;14.97;;;;;;;9.87;67.99;98486.69;5095389;28;20279;-86
2023/12/02 00:35:10;;;;;;;42.40;19.23;;;;;;;9.86;67.99;98482.38;5095042;28;20226;-86
2023/12/02 00:37:35;;;;;;;28.00;13.77;;;;;;;10.00;67.10;98486.78;5077209;28;20188;-86
2023/12/02 00:40:01;;;;;;;27.10;13.00;;;;;;;10.04;66.44;98478.63;5077394;28;20199;-86
2023/12/02 00:42:27;;;;;;;26.50;13.87;;;;;;;9.86;66.76;98479.75;5095179;28;20195;-86
2023/12/02 00:44:52;;;;;;;25.43;12.57;;;;;;;9.77;66.88;98475.91;5076808;28;20566;-86
2023/12/02 00:47:18;;;;;;;27.87;14.60;;;;;;;9.76;66.65;98484.69;5094187;28;20209;-87
2023/12/02 00:49:43;;;;;;;38.57;17.57;;;;;;;9.78;66.82;98479.34;5077092;28;20183;-87
2023/12/02 00:52:09;;;;;;;74.83;21.87;;;;;;;9.66;66.88;98483.56;5094990;28;20640;-86
2023/12/02 00:54:36;;;;;;;55.00;18.93;;;;;;;9.60;67.16;98489.16;5094984;28;20183;-86
2023/12/02 00:57:01;;;;;;;38.70;16.70;;;;;;;9.69;67.06;98474.69;5076979;28;20521;-86
2023/12/02 00:59:27;;;;;;;34.90;15.83;;;;;;;9.69;67.20;98482.53;5094724;28;20238;-87
2023/12/02 01:01:52;;;;;;;29.73;16.23;;;;;;;9.60;67.69;98476.06;5076728;28;20660;-86
2023/12/02 01:04:18;;;;;;;35.90;14.77;;;;;;;9.56;67.57;98477.19;5094632;28;20172;-85
2023/12/02 01:06:43;;;;;;;33.80;16.47;;;;;;;9.52;67.93;98470.44;5091846;28;20181;-87
2023/12/02 01:09:09;;;;;;;41.40;15.83;;;;;;;9.61;67.67;98475.16;5095007;28;20172;-86
2023/12/02 01:11:34;;;;;;;32.90;15.90;;;;;;;9.56;67.88;98461.50;5094356;28;20183;-87
2023/12/02 01:14:00;;;;;;;33.00;16.07;;;;;;;9.57;68.15;98462.31;5076833;28;20283;-86
2023/12/02 01:16:25;;;;;;;46.93;18.47;;;;;;;9.66;67.82;98464.41;5076582;28;20263;-87
2023/12/02 01:18:51;;;;;;;25.67;14.23;;;;;;;9.71;67.94;98452.72;5076567;28;20207;-86
2023/12/02 01:21:17;;;;;;;42.43;17.67;;;;;;;9.68;67.76;98455.53;5076647;28;20180;-87
2023/12/02 01:23:42;;;;;;;39.00;14.40;;;;;;;9.63;67.75;98448.88;5094374;28;20309;-87
2023/12/02 01:26:08;;;;;;;30.37;13.80;;;;;;;9.66;67.75;98446.09;5076593;28;20184;-87
2023/12/02 01:28:33;;;;;;;30.07;14.00;;;;;;;9.68;68.27;98455.53;5072702;28;20187;-86
2023/12/02 01:30:59;;;;;;;26.10;13.57;;;;;;;9.69;68.25;98446.75;5074599;28;20169;-86
2023/12/02 01:33:24;;;;;;;25.93;13.00;;;;;;;9.68;68.34;98452.91;5056124;28;20681;-86
2023/12/02 01:35:50;;;;;;;30.67;13.67;;;;;;;9.64;68.45;98443.53;5073455;28;20191;-86
2023/12/02 01:38:15;;;;;;;27.67;12.80;;;;;;;9.57;68.88;98430.91;5074105;28;20173;-87
2023/12/02 01:40:41;;;;;;;30.90;14.47;;;;;;;9.55;68.86;98438.03;5056536;28;20188;-86
2023/12/02 01:43:06;;;;;;;42.70;19.20;;;;;;;9.60;69.30;98431.59;5071103;28;20173;-87
2023/12/02 01:45:32;;;;;;;34.53;15.70;;;;;;;9.61;69.75;98427.22;5076026;28;20641;-86
2023/12/02 01:47:59;;;;;;;41.57;17.23;;;;;;;9.62;69.73;98431.47;5094157;28;20187;-87
2023/12/02 01:50:25;;;;;;;31.67;14.83;;;;;;;9.60;69.63;98438.59;5093481;28;20184;-87
2023/12/02 01:52:51;;;;;;;28.80;14.03;;;;;;;9.58;70.14;98430.84;5094129;28;20206;-86
2023/12/02 01:55:16;;;;;;;28.33;13.33;;;;;;;9.65;70.37;98434.78;5067257;28;20195;-87
2023/12/02 01:57:42;;;;;;;34.70;14.47;;;;;;;9.70;70.59;98429.25;5073385;28;20638;-86
2023/12/02 02:00:09;;;;;;;27.40;12.90;;;;;;;9.73;70.75;98424.69;5055875;28;20626;-86
2023/12/02 02:02:35;;;;;;;34.07;14.63;;;;;;;9.79;71.08;98416.47;5055851;28;20187;-86
2023/12/02 02:05:01;;;;;;;26.57;12.93;;;;;;;9.84;71.41;98414.41;5073507;28;20181;-86
2023/12/02 02:07:28;;;;;;;28.53;15.60;;;;;;;9.86;71.61;98416.94;5073802;28;20534;-86
2023/12/02 02:09:54;;;;;;;34.33;15.30;;;;;;;9.91;72.05;98412.25;5080362;28;20200;-86
2023/12/02 02:12:20;;;;;;;35.27;16.80;;;;;;;10.00;72.28;98419.56;5093821;28;20629;-86
2023/12/02 02:14:45;;;;;;;34.77;15.63;;;;;;;10.01;72.37;98420.41;5093601;28;20263;-86
2023/12/02 02:17:11;;;;;;;38.17;18.03;;;;;;;10.07;72.49;98427.84;5073804;28;20274;-87
2023/12/02 02:19:37;;;;;;;34.10;14.23;;;;;;;10.07;72.37;98433.94;5076097;28;20656;-87
2023/12/02 02:22:03;;;;;;;30.40;16.33;;;;;;;10.05;71.71;98429.72;5093841;28;20171;-87
2023/12/02 02:24:29;;;;;;;50.67;19.13;;;;;;;9.98;71.14;98425.81;5093463;28;20180;-86
2023/12/02 02:26:54;;;;;;;50.20;21.50;;;;;;;9.95;71.16;98426.84;5075558;28;20567;-86
2023/12/02 02:29:20;;;;;;;31.17;16.20;;;;;;;9.99;71.09;98422.25;5093479;28;20557;-87
2023/12/02 02:31:45;;;;;;;29.10;14.73;;;;;;;10.00;70.58;98424.78;5092749;28;20680;-87
2023/12/02 02:34:11;;;;;;;33.10;15.73;;;;;;;9.91;70.04;98425.34;5064492;28;20239;-87
2023/12/02 02:36:36;;;;;;;37.43;20.00;;;;;;;9.90;69.72;98415.81;5055440;28;20268;-86
2023/12/02 02:39:02;;;;;;;47.67;18.97;;;;;;;9.85;69.59;98430.97;5055450;28;20239;-86
2023/12/02 02:41:28;;;;;;;33.30;16.77;;;;;;;9.85;69.42;98441.44;5055984;28;20184;-86
2023/12/02 02:43:54;;;;;;;30.67;15.30;;;;;;;9.67;69.42;98435.50;5071708;28;20176;-86
2023/12/02 02:46:19;;;;;;;31.63;15.20;;;;;;;9.57;71.83;98437.00;5093262;28;20169;-86
2023/12/02 02:48:45;;;;;;;28.83;14.70;;;;;;;9.69;71.57;98440.66;5093026;28;20180;-86
2023/12/02 02:51:10;;;;;;;38.20;15.87;;;;;;;9.69;71.83;98441.53;5075141;28;20233;-86
2023/12/02 02:53:36;;;;;;;30.57;15.40;;;;;;;9.70;71.81;98458.88;5092976;28;20204;-86
2023/12/02 02:56:01;;;;;;;35.47;15.57;;;;;;;9.75;71.80;98448.13;5093037;28;20184;-87
2023/12/02 02:58:30;;;;;;;28.80;14.83;;;;;;;9.77;71.50;98441.06;5075223;28;20224;-86
2023/12/02 03:00:55;;;;;;;30.27;15.27;;;;;;;9.83;71.22;98443.28;5075153;28;20172;-87
2023/12/02 03:03:20;;;;;;;31.57;14.33;;;;;;;9.88;70.85;98451.69;5093034;28;20234;-86
2023/12/02 03:05:46;;;;;;;31.50;14.87;;;;;;;9.84;71.86;98444.97;5075577;28;20638;-86
2023/12/02 03:08:12;;;;;;;29.10;14.10;;;;;;;9.86;71.46;98436.09;5075207;28;20656;-87
2023/12/02 03:10:37;;;;;;;34.67;15.97;;;;;;;9.88;71.39;98417.66;5095780;28;20203;-87
2023/12/02 03:13:03;;;;;;;32.37;14.93;;;;;;;9.78;71.04;98416.56;5079021;28;20290;-86
2023/12/02 03:15:28;;;;;;;27.93;14.33;;;;;;;9.75;70.12;98419.34;5078697;28;20521;-87
2023/12/02 03:17:54;;;;;;;32.47;14.37;;;;;;;9.75;70.12;98435.91;5097055;28;20655;-86
2023/12/02 03:20:19;;;;;;;30.30;14.87;;;;;;;9.80;69.50;98412.09;5096725;28;20176;-87
2023/12/02 03:22:45;;;;;;;34.90;19.73;;;;;;;9.65;68.87;98411.22;5079364;28;20187;-86
2023/12/02 03:25:11;;;;;;;31.67;15.13;;;;;;;9.63;68.92;98412.25;5097040;28;20259;-86
2023/12/02 03:27:37;;;;;;;31.33;14.40;;;;;;;9.50;68.51;98400.84;5096463;28;20254;-87
2023/12/02 03:30:03;;;;;;;29.57;14.30;;;;;;;9.50;68.63;98398.22;5078673;28;20270;-86
2023/12/02 03:32:29;;;;;;;30.87;14.50;;;;;;;9.49;69.09;98393.91;5096807;28;20203;-86
2023/12/02 03:34:54;;;;;;;26.37;12.97;;;;;;;9.33;69.38;98387.94;5078587;28;20181;-86
2023/12/02 03:37:20;;;;;;;36.20;14.17;;;;;;;9.34;69.74;98393.06;5078664;28;20550;-86
2023/12/02 03:39:45;;;;;;;27.17;13.03;;;;;;;9.36;69.50;98396.41;5096372;28;20182;-86
2023/12/02 03:42:11;;;;;;;24.30;13.53;;;;;;;9.39;69.26;98398.00;5078558;28;20310;-87
2023/12/02 03:44:36;;;;;;;24.90;13.43;;;;;;;9.25;68.16;98396.22;5078447;28;20616;-87
2023/12/02 03:47:03;;;;;;;41.13;16.23;;;;;;;9.19;68.00;98388.75;5096664;28;20257;-86
2023/12/02 03:49:28;;;;;;;36.77;14.90;;;;;;;9.17;68.14;98390.63;5078320;28;20664;-86
2023/12/02 03:51:54;;;;;;;27.00;13.33;;;;;;;9.13;68.60;98392.56;5078466;28;20211;-86
2023/12/02 03:54:19;;;;;;;31.03;14.00;;;;;;;9.15;68.20;98387.22;5078196;28;20562;-86
2023/12/02 03:56:45;;;;;;;29.53;13.50;;;;;;;9.21;68.07;98382.50;5078833;28;20527;-86
2023/12/02 03:59:11;;;;;;;35.47;14.30;;;;;;;9.18;67.89;98377.44;5080208;28;20172;-86
2023/12/02 04:01:36;;;;;;;35.27;15.50;;;;;;;9.11;68.46;98377.91;5096081;28;20525;-86
2023/12/02 04:04:02;;;;;;;35.13;16.90;;;;;;;9.10;68.39;98384.91;5077661;28;20692;-86
2023/12/02 04:06:27;;;;;;;35.10;14.20;;;;;;;9.02;68.38;98381.88;5078591;28;20180;-86
2023/12/02 04:08:53;;;;;;;28.33;13.53;;;;;;;8.98;68.38;98384.78;5095640;28;20199;-86
2023/12/02 04:11:18;;;;;;;28.40;13.40;;;;;;;8.88;68.49;98378.41;5096183;28;20321;-86
2023/12/02 04:13:44;;;;;;;37.73;17.17;;;;;;;9.00;68.22;98386.38;5077845;28;20195;-86
2023/12/02 04:16:10;;;;;;;40.87;18.33;;;;;;;9.00;68.63;98375.06;5078021;28;20187;-86
2023/12/02 04:18:35;;;;;;;39.33;18.13;;;;;;;8.93;69.39;98373.75;5078529;28;20608;-86
2023/12/02 04:21:01;;;;;;;55.60;23.43;;;;;;;8.91;69.78;98381.66;5094216;28;20271;-86
2023/12/02 04:23:26;;;;;;;46.03;20.30;;;;;;;8.90;69.54;98387.84;5078232;28;20307;-86
2023/12/02 04:25:52;;;;;;;38.10;18.20;;;;;;;8.91;69.75;98388.69;5077358;28;20184;-86
2023/12/02 04:28:17;;;;;;;28.77;15.80;;;;;;;8.91;69.42;98383.44;5095577;28;20301;-86
2023/12/02 04:30:43;;;;;;;39.90;15.87;;;;;;;8.84;69.30;98390.78;5077481;28;20183;-86
2023/12/02 04:33:09;;;;;;;36.73;18.43;;;;;;;9.00;68.09;98373.28;5095409;28;20635;-87
2023/12/02 04:35:37;;;;;;;42.93;20.57;;;;;;;9.05;67.70;98371.25;5077586;28;20183;-86
2023/12/02 04:38:06;;;;;;;41.67;19.50;;;;;;;8.98;68.02;98372.56;5077501;28;20697;-86
2023/12/02 04:40:32;;;;;;;56.03;21.63;;;;;;;8.91;68.78;98368.59;5095082;28;20237;-86
2023/12/02 04:42:58;;;;;;;44.20;19.57;;;;;;;8.89;68.92;98370.47;5077450;28;20717;-86
2023/12/02 04:45:23;;;;;;;38.40;17.17;;;;;;;8.96;68.88;98358.72;5064109;28;20266;-86
2023/12/02 04:47:48;;;;;;;30.70;15.13;;;;;;;8.98;69.55;98351.66;5057312;28;20618;-86
2023/12/02 04:50:14;;;;;;;38.80;17.10;;;;;;;8.96;70.58;98353.47;5085797;28;20188;-86
2023/12/02 04:52:39;;;;;;;35.23;16.10;;;;;;;8.90;71.83;98353.84;5077241;28;20797;-86
2023/12/02 04:55:06;;;;;;;42.53;22.23;;;;;;;8.85;72.24;98348.06;5077161;28;20172;-86
2023/12/02 04:57:32;;;;;;;39.50;18.50;;;;;;;8.91;71.54;98365.16;5094669;28;20202;-87
2023/12/02 04:59:57;;;;;;;34.60;16.73;;;;;;;8.87;71.28;98361.88;5095151;28;20177;-86
2023/12/02 05:02:23;;;;;;;35.17;16.67;;;;;;;8.92;71.00;98364.22;5094529;28;20569;-86
2023/12/02 05:04:49;;;;;;;29.90;14.53;;;;;;;8.93;70.29;98361.53;5077006;28;20280;-86
2023/12/02 05:07:15;;;;;;;34.27;17.13;;;;;;;8.93;70.15;98356.31;5087323;28;20226;-87
2023/12/02 05:09:41;;;;;;;30.97;15.73;;;;;;;9.04;69.60;98361.72;5059365;28;20694;-86
2023/12/02 05:12:07;;;;;;;32.97;15.60;;;;;;;8.92;69.23;98369.44;5076781;28;20190;-86
2023/12/02 05:14:33;;;;;;;41.93;19.27;;;;;;;8.92;68.74;98385.13;5094173;28;20523;-86
2023/12/02 05:16:58;;;;;;;39.37;17.00;;;;;;;8.75;68.76;98398.31;5076917;28;20185;-86
2023/12/02 05:19:24;;;;;;;40.93;17.10;;;;;;;8.65;68.92;98395.38;5077151;28;20180;-86
2023/12/02 05:21:49;;;;;;;37.10;17.87;;;;;;;8.72;69.11;98394.13;5092431;28;20253;-86
2023/12/02 05:24:18;;;;;;;40.27;17.60;;;;;;;8.70;69.06;98390.72;5076569;28;20175;-87
2023/12/02 05:26:44;;;;;;;38.40;16.57;;;;;;;8.71;69.34;98381.97;5082824;28;20248;-87
2023/12/02 05:29:09;;;;;;;37.00;17.37;;;;;;;8.74;69.26;98371.34;5056604;28;20182;-86
2023/12/02 05:31:37;;;;;;;38.83;16.40;;;;;;;8.59;69.62;98369.63;5087601;28;20194;-87
2023/12/02 05:34:03;;;;;;;38.33;16.57;;;;;;;8.55;70.06;98368.09;5093525;28;20276;-86
2023/12/02 05:36:28;;;;;;;38.03;18.80;;;;;;;8.53;70.28;98359.50;5092297;28;20176;-86
2023/12/02 05:38:54;;;;;;;40.97;21.73;;;;;;;8.51;69.71;98364.81;5073771;28;20185;-86
2023/12/02 05:41:19;;;;;;;49.87;25.33;;;;;;;8.47;68.89;98365.91;5056645;28;20610;-86
2023/12/02 05:43:45;;;;;;;43.63;20.67;;;;;;;8.50;69.00;98363.13;5080229;28;20179;-86
2023/12/02 05:46:17;;;;;;;45.93;20.50;;;;;;;8.45;68.77;98348.66;5093996;28;20652;-86
2023/12/02 05:48:46;;;;;;;52.00;23.60;;;;;;;8.35;69.23;98350.09;5075827;28;20690;-87
2023/12/02 05:51:14;;;;;;;44.07;19.80;;;;;;;8.36;68.82;98349.19;5093900;28;20558;-87
2023/12/02 05:53:40;;;;;;;37.37;19.10;;;;;;;8.32;68.89;98342.44;5094123;28;20240;-87
2023/12/02 05:56:07;;;;;;;31.83;16.80;;;;;;;8.42;69.01;98346.22;5075420;28;20219;-86
2023/12/02 05:58:33;;;;;;;32.00;16.53;;;;;;;8.44;69.28;98346.94;5093792;28;20283;-86
2023/12/02 06:00:58;;;;;;;37.40;18.83;;;;;;;8.42;69.59;98343.59;5075842;28;20173;-86
2023/12/02 06:03:24;;;;;;;32.60;17.87;;;;;;;8.53;69.49;98362.13;5076079;28;20179;-86
2023/12/02 06:05:49;;;;;;;39.47;18.40;;;;;;;8.59;69.57;98359.97;5075787;28;20532;-86
2023/12/02 06:08:15;;;;;;;43.90;18.57;;;;;;;8.73;69.85;98353.13;5093725;28;20212;-86
2023/12/02 06:10:40;;;;;;;36.07;17.87;;;;;;;8.93;70.27;98358.91;5093478;28;20667;-86
2023/12/02 06:13:06;;;;;;;38.30;16.27;;;;;;;8.96;71.62;98332.56;5075777;28;20227;-86
2023/12/02 06:15:31;;;;;;;39.10;18.17;;;;;;;9.08;72.33;98342.31;5075839;28;20176;-86
2023/12/02 06:17:57;;;;;;;39.87;18.33;;;;;;;9.26;72.85;98351.69;5078563;28;20185;-86
2023/12/02 06:20:26;;;;;;;41.63;17.90;;;;;;;9.56;72.52;98348.16;5092275;28;20264;-86
2023/12/02 06:22:54;;;;;;;39.00;17.63;;;;;;;9.90;74.20;98335.50;5093515;28;20219;-86
2023/12/02 06:25:20;;;;;;;37.07;16.73;;;;;;;10.64;76.36;98329.06;5093219;28;20180;-87
2023/12/02 06:27:46;;;;;;;39.90;17.93;;;;;;;11.57;76.03;98330.53;5093454;28;20579;-87
2023/12/02 06:30:15;;;;;;;36.43;17.83;;;;;;;12.75;72.45;98343.00;5075385;28;20656;-87
2023/12/02 06:32:41;;;;;;;31.70;15.80;;;;;;;13.54;67.88;98343.13;5075355;28;20208;-87
2023/12/02 06:35:07;;;;;;;22.13;12.30;;;;;;;13.63;67.30;98335.44;5075447;28;20188;-87
2023/12/02 06:37:33;;;;;;;31.43;13.93;;;;;;;13.47;68.57;98328.75;5072999;28;20742;-87
2023/12/02 06:39:58;;;;;;;25.33;13.13;;;;;;;13.78;70.15;98329.84;5055765;28;20636;-87
2023/12/02 06:42:24;;;;;;;26.80;12.50;;;;;;;14.34;69.42;98338.53;5072898;28;20175;-87
2023/12/02 06:44:49;;;;;;;28.57;13.07;;;;;;;14.56;67.54;98327.09;5077273;28;20699;-87
2023/12/02 06:47:15;;;;;;;31.83;14.90;;;;;;;14.08;68.14;98337.13;5097759;28;20233;-87
2023/12/02 06:49:41;;;;;;;33.57;16.10;;;;;;;14.12;67.08;98328.84;5068385;28;20187;-87
2023/12/02 06:52:07;;;;;;;32.83;16.07;;;;;;;14.22;66.52;98317.56;5057999;28;20185;-87
2023/12/02 06:54:41;;;;;;;25.60;14.57;;;;;;;14.19;65.21;98318.66;5060756;28;20643;-87
2023/12/02 06:57:08;;;;;;;34.97;14.93;;;;;;;14.39;66.00;98324.97;5096541;28;20212;-87
2023/12/02 06:59:33;;;;;;;28.93;14.50;;;;;;;14.77;65.15;98325.34;5085454;28;20184;-87
2023/12/02 07:01:59;;;;;;;26.90;13.97;;;;;;;15.00;63.83;98310.25;5059497;28;20310;-87
2023/12/02 07:04:24;;;;;;;29.37;14.07;;;;;;;15.00;63.70;98320.78;5078550;28;20202;-87
2023/12/02 07:06:50;;;;;;;30.00;13.93;;;;;;;14.90;63.11;98333.94;5054434;28;20177;-87
2023/12/02 07:09:15;;;;;;;31.73;15.23;;;;;;;14.88;62.42;98324.47;5068286;28;20183;-87
2023/12/02 07:11:41;;;;;;;27.50;14.70;;;;;;;14.74;62.21;98323.81;5079048;28;20184;-87
2023/12/02 07:14:07;;;;;;;27.50;13.50;;;;;;;14.74;61.61;98318.53;5096771;28;20192;-87
2023/12/02 07:16:32;;;;;;;25.50;14.00;;;;;;;14.64;62.65;98330.78;5078724;28;20176;-87
2023/12/02 07:18:58;;;;;;;33.20;13.73;;;;;;;14.61;63.19;98344.22;5078893;28;20226;-87
2023/12/02 07:21:23;;;;;;;29.23;14.20;;;;;;;14.57;63.90;98342.78;5097150;28;20237;-86
2023/12/02 07:23:49;;;;;;;25.87;12.47;;;;;;;14.53;65.20;98332.63;5094295;28;20625;-87
2023/12/02 07:26:14;;;;;;;22.47;10.23;;;;;;;14.52;68.31;98341.47;5062064;28;20197;-87
2023/12/02 07:28:40;;;;;;;22.90;10.83;;;;;;;14.66;68.34;98346.47;5050576;28;20647;-87
2023/12/02 07:31:11;;;;;;;20.67;12.40;;;;;;;14.76;68.41;98335.06;5069779;28;20243;-87
2023/12/02 07:33:37;;;;;;;24.67;9.80;;;;;;;15.01;68.38;98347.06;5081835;28;20203;-87
2023/12/02 07:36:03;;;;;;;23.83;9.90;;;;;;;15.18;68.12;98345.66;5075949;28;20354;-87
2023/12/02 07:38:28;;;;;;;23.07;10.43;;;;;;;15.24;69.57;98340.72;5080634;28;20730;-87
2023/12/02 07:40:54;;;;;;;13.77;5.60;;;;;;;15.35;71.27;98342.44;5050033;28;20184;-87
2023/12/02 07:43:19;;;;;;;16.50;6.80;;;;;;;15.57;72.20;98344.09;5081693;28;20182;-87
2023/12/02 07:45:45;;;;;;;16.83;6.87;;;;;;;15.91;72.27;98335.78;5060650;28;20183;-87
2023/12/02 07:48:10;;;;;;;13.43;5.77;;;;;;;16.22;71.98;98328.66;5074183;28;20243;-88
2023/12/02 07:50:37;;;;;;;12.30;5.40;;;;;;;16.47;72.38;98327.31;5059500;28;20540;-87
2023/12/02 07:53:03;;;;;;;9.80;4.33;;;;;;;16.72;71.94;98332.09;5059795;28;20204;-88
2023/12/02 07:55:28;;;;;;;11.37;4.67;;;;;;;16.94;71.17;98331.00;5054114;28;20653;-88
2023/12/02 07:57:54;;;;;;;6.23;1.60;;;;;;;17.09;71.61;98325.13;5058225;28;20279;-88
2023/12/02 08:00:20;;;;;;;3.87;1.30;;;;;;;17.32;71.92;98324.84;5063664;28;20186;-90
2023/12/02 08:02:45;;;;;;;2.87;1.23;;;;;;;17.51;71.70;98320.31;5073993;28;20177;-91
2023/12/02 08:05:11;;;;;;;4.77;1.43;;;;;;;17.85;70.50;98312.69;5069781;28;20183;-91
2023/12/02 08:07:36;;;;;;;4.63;0.90;;;;;;;18.08;69.48;98310.53;5059857;28;20191;-91
2023/12/02 08:10:02;;;;;;;3.23;1.10;;;;;;;18.21;68.51;98313.66;5062833;28;20662;-92
2023/12/02 08:12:28;;;;;;;8.17;0.80;;;;;;;18.40;67.81;98306.41;5058179;28;20273;-91
2023/12/02 08:14:53;;;;;;;13.80;3.47;;;;;;;18.55;66.79;98308.59;5076064;28;20204;-89
2023/12/02 08:17:19;;;;;;;3.30;1.07;;;;;;;18.81;65.98;98306.84;5075883;28;20238;-91
2023/12/02 08:19:45;;;;;;;2.80;0.87;;;;;;;19.09;65.04;98307.56;5075901;28;20685;-92
2023/12/02 08:22:11;;;;;;;3.13;0.73;;;;;;;19.11;64.90;98297.63;5075809;28;20626;-92
2023/12/02 08:24:42;;;;;;;2.67;0.97;;;;;;;19.18;64.40;98304.81;5069542;28;20553;-91
2023/12/02 08:27:13;;;;;;;3.07;0.63;;;;;;;19.25;63.99;98299.72;5078152;28;20192;-93
2023/12/02 08:29:42;;;;;;;3.10;0.90;;;;;;;19.38;63.83;98310.81;5079403;28;20661;-91
2023/12/02 08:32:12;;;;;;;3.57;0.80;;;;;;;19.32;63.86;98320.22;5075893;28;20173;-91
2023/12/02 08:34:38;;;;;;;2.27;1.00;;;;;;;19.34;63.85;98317.41;5057625;28;20193;-91
2023/12/02 08:37:04;;;;;;;3.83;0.73;;;;;;;19.46;63.90;98313.53;5075353;28;20181;-90
2023/12/02 08:39:41;;;;;;;2.67;1.03;;;;;;;19.52;63.73;98331.53;5092138;28;20192;-92
2023/12/02 08:42:07;;;;;;;3.97;0.70;;;;;;;19.68;63.65;98331.59;5095797;28;20164;-90
2023/12/02 08:44:54;;;;;;;;;;;;;;;;;;;;;
2023/12/02 08:47:22;;;;;;;2.70;0.50;;;;;;;19.89;62.46;98337.38;5096094;28;20171;-91
2023/12/02 08:49:47;;;;;;;4.17;0.87;;;;;;;20.12;62.19;98338.50;5060935;28;20575;-92
2023/12/02 08:52:13;;;;;;;4.20;1.23;;;;;;;20.18;61.69;98329.88;5058418;28;20219;-91
2023/12/02 08:54:39;;;;;;;3.43;1.20;;;;;;;20.32;61.15;98327.63;5057588;28;20217;-91
2023/12/02 08:57:04;;;;;;;6.93;3.00;;;;;;;20.55;58.63;98337.50;5094483;28;20211;-91
2023/12/02 08:59:52;;;;;;;;;;;;;;;;;;;;;
2023/12/02 09:02:56;;;;;;;;;;;;;;;;;;;;;
2023/12/02 09:05:56;;;;;;;16.80;8.63;;;;;;;19.50;48.75;98333.47;5070968;28;20528;-92
2023/12/02 09:09:23;;;;;;;10.20;4.17;;;;;;;19.30;54.35;98329.31;5068978;28;20199;-92
2023/12/02 09:12:04;;;;;;;;;;;;;;;;;;;;;
2023/12/02 09:14:32;;;;;;;13.53;3.93;;;;;;;19.31;57.35;98315.88;5095021;28;20214;-91
2023/12/02 09:17:02;;;;;;;9.37;3.00;;;;;;;19.45;57.35;98310.03;5094873;28;20183;-91
2023/12/02 09:19:53;;;;;;;5.60;2.60;;;;;;;19.57;58.59;98305.31;5077248;28;20184;-91
2023/12/02 09:22:48;;;;;;;7.23;2.70;;;;;;;19.57;59.71;98300.78;5076913;28;20633;-91
2023/12/02 09:25:28;;;;;;;6.50;1.90;;;;;;;19.75;60.06;98279.47;5076964;28;20191;-92
2023/12/02 09:28:05;;;;;;;5.03;2.20;;;;;;;19.87;60.46;98280.84;5077835;28;20184;-91
2023/12/02 09:30:37;;;;;;;24.23;8.47;;;;;;;20.05;60.77;98273.59;5057135;28;20217;-91
2023/12/02 09:33:35;;;;;;;9.73;3.87;;;;;;;20.33;59.95;98268.06;5057042;28;20200;-91
2023/12/02 09:36:02;;;;;;;12.33;3.03;;;;;;;20.33;59.90;98260.09;5054110;28;20198;-90
2023/12/02 09:38:28;;;;;;;8.73;1.80;;;;;;;20.37;59.70;98256.09;5054145;28;20181;-91
2023/12/02 09:41:03;;;;;;;4.73;1.40;;;;;;;20.29;60.33;98264.06;5054986;28;20205;-90
2023/12/02 09:58:06;;;;;;;;;;;;;;;;;;;;;
2023/12/02 10:01:34;;;;;;;22.53;11.37;;;;;;;17.27;50.41;98282.06;4810888;29;20209;-92
2023/12/02 10:04:38;;;;;;;27.40;11.63;;;;;;;17.03;51.91;98272.75;4867133;29;20189;-92
2023/12/02 10:10:48;;;;;;;24.67;12.93;;;;;;;16.29;54.53;98268.97;4934984;29;20209;-92
2023/12/02 10:13:18;;;;;;;24.23;12.70;;;;;;;16.22;55.81;98261.75;4918835;29;20227;-91
2023/12/02 10:16:30;;;;;;;19.63;10.57;;;;;;;16.29;55.36;98255.75;4919416;29;20656;-91
2023/12/02 10:18:59;;;;;;;22.00;11.07;;;;;;;16.33;54.33;98251.84;4989715;28;20205;-91
2023/12/02 10:22:23;;;;;;;;;;;;;;;;;;;;;
2023/12/02 10:24:35;;;;;;;24.83;13.57;;;;;;;16.07;54.50;98256.00;5050682;28;20202;-91
2023/12/02 10:27:18;;;;;;;;;;;;;;;;;;;;;
2023/12/02 10:29:59;;;;;;;22.00;11.40;;;;;;;15.83;57.44;98234.38;5093994;28;20182;-91
2023/12/02 10:32:40;;;;;;;23.10;12.83;;;;;;;15.91;57.80;98232.72;5093575;28;20194;-90
2023/12/02 10:35:32;;;;;;;21.00;10.40;;;;;;;16.15;57.69;98235.00;5076102;28;20167;-92
2023/12/02 10:38:06;;;;;;;20.53;9.77;;;;;;;16.23;58.61;98235.16;5093937;28;20157;-90
2023/12/02 10:40:46;;;;;;;20.17;9.70;;;;;;;16.30;58.43;98236.25;5053807;28;20218;-91
2023/12/02 10:44:08;;;;;;;;;;;;;;;;;;;;;
2023/12/02 10:46:35;;;;;;;23.33;11.40;;;;;;;16.51;56.96;98229.03;5094478;28;20539;-90
2023/12/02 10:49:01;;;;;;;18.97;10.20;;;;;;;16.57;55.97;98233.81;5071720;28;20216;-91
2023/12/02 10:51:28;;;;;;;19.60;11.53;;;;;;;16.57;55.52;98228.50;5055668;28;20172;-91
2023/12/02 10:54:02;;;;;;;16.90;10.33;;;;;;;16.48;55.39;98229.31;5073458;28;20197;-91
2023/12/02 10:56:41;;;;;;;20.63;11.37;;;;;;;16.49;54.99;98220.41;5053059;28;20158;-91
2023/12/02 10:59:11;;;;;;;21.73;12.33;;;;;;;16.40;55.35;98231.81;5057190;28;20179;-91
2023/12/02 11:01:52;;;;;;;19.13;10.60;;;;;;;16.37;55.19;98224.16;5093230;28;20184;-90
2023/12/02 11:04:24;;;;;;;28.07;11.93;;;;;;;16.18;56.24;98224.16;5075732;28;20261;-90
2023/12/02 11:06:57;;;;;;;22.27;11.43;;;;;;;16.11;56.48;98215.09;5075557;28;20269;-91
2023/12/02 11:10:02;;;;;;;17.70;9.70;;;;;;;16.06;57.96;98206.75;5075373;28;20181;-90
2023/12/02 11:12:41;;;;;;;33.07;11.77;;;;;;;16.02;59.85;98192.13;5093420;28;20270;-90
2023/12/02 11:15:14;;;;;;;28.87;9.43;;;;;;;16.05;63.97;98189.22;5093657;28;20206;-90
2023/12/02 11:17:53;;;;;;;24.13;10.03;;;;;;;16.09;64.64;98172.09;5093272;28;20171;-90
2023/12/02 11:20:25;;;;;;;15.17;6.67;;;;;;;16.22;66.04;98153.34;5053382;28;20165;-90
2023/12/02 11:23:18;;;;;;;12.57;5.70;;;;;;;16.45;68.33;98150.25;5035541;28;20176;-91
2023/12/02 11:25:58;;;;;;;8.97;2.80;;;;;;;16.78;69.72;98153.41;5070455;28;20191;-89
2023/12/02 11:28:33;;;;;;;6.00;1.60;;;;;;;17.01;71.99;98146.78;5093599;28;20221;-89
2023/12/02 11:31:01;;;;;;;3.23;1.23;;;;;;;17.32;71.72;98112.94;5079331;28;20180;-89
2023/12/02 11:33:50;;;;;;;5.83;1.67;;;;;;;17.67;70.57;98123.63;5058926;28;20657;-90
2023/12/02 11:36:31;;;;;;;3.10;1.07;;;;;;;18.16;68.31;98109.03;5062654;28;20599;-88
2023/12/02 11:39:14;;;;;;;4.03;1.33;;;;;;;18.45;66.90;98114.09;5097002;28;20596;-91
2023/12/02 11:41:53;;;;;;;2.93;0.87;;;;;;;18.71;66.05;98110.47;5079494;28;20206;-90
2023/12/02 11:44:53;;;;;;;7.10;1.80;;;;;;;18.90;64.70;98094.31;5076314;28;20160;-87
2023/12/02 11:47:59;;;;;;;7.60;2.80;;;;;;;19.03;63.95;98085.91;5065534;28;20197;-89
2023/12/02 11:50:54;;;;;;;4.60;1.00;;;;;;;19.17;62.99;98092.47;5096810;28;20169;-91
2023/12/02 11:53:36;;;;;;;3.87;1.50;;;;;;;19.24;62.52;98094.31;5078383;28;20189;-90
2023/12/02 11:56:14;;;;;;;5.03;0.80;;;;;;;19.37;61.39;98096.50;5096629;28;20171;-89
2023/12/02 11:59:20;;;;;;;6.13;1.00;;;;;;;19.75;60.20;98087.19;5063184;28;20235;-91
2023/12/02 12:02:33;;;;;;;3.33;0.97;;;;;;;19.62;60.21;98077.03;4963255;28;20259;-91
2023/12/02 12:05:27;;;;;;;3.90;0.87;;;;;;;19.62;60.04;98061.09;4987059;28;20226;-89